Aeroporto :
LOGIN :

Iscrizione | Disclaimer

   EN    FR    IT 

 










Sommario :    VFR   VFR Marginale   IFR   IFR Intensivo   IFR Molto Intensivo
Visibilità : 
Base nubi : 
>= 8 km
>= 3000ft
5 / 8 km
1000 / 3000 ft
1500m / 5 km
500 / 1000 ft
800 / 1500m
200 / 500 ft
< 800m
< 200 ft
Simboli :   Temporali  Nebbia  Neve Forte  Precipitazioni Forti  Vento > 20 kt
SIGMETs :   Varie  Temporali  Ghiacco  Turbolenza  Onda orograficha  Ceneri Vulcaniche






- Altitudine del aeroporto : 586 ft


LIMN - Cameri Air Force Base

ULTIMO METAR :
  • 121755Z VRB02KT 4000 BR FEW010 BKN022 03/01 Q1004

METARs OBSOLETI :
  • 121655Z 32004KT 4000 BR FEW010 BKN022 04/00 Q1005 RMK OVC VIS MIN 4000 GRN
  • 121555Z 28003KT 5000 BR FEW010 BKN022 04/01 Q1005 RMK BKN VIS MIN 5000 WHT

TAF TAF LIMN
Valido dal 12 a 18 ore il 13 a 03 ore UTC


121700Z 1218/1303 VRB03KT 3000 BR BKN020



MetMap, La meteo Aeronautica in un colpo d'occhio ! - Copyright ORBIFLY Dicembre 2007 - Disclaimer

ORBIFLY MET'MAP TEAM :

Programmazione e sviluppo : Alexandra Zaïnal
Concezione : Baudouin d'Aumeries
Aiuto per la programmazione : Marc-Olivier Méhu
Supporto tecnico e logistico : Manuel Goepfert
Aiuto per la traduzione : Arnaldo La Scala

Contatto : metmap@orbifly.com




FONTI E CREDITI :

   NOAA